Time;durP1;ratioP1;P1;durP2;ratioP2;P2;SDS_P1;SDS_P2;PMS_P1;PMS_P2;Temp;Humidity;BMP_temperature;BMP_pressure;BME280_temperature;BME280_humidity;BME280_pressure;Samples;Min_cycle;Max_cycle;Signal;HPM_P1;HPM_P2
2022/02/15 00:01:50;;;;;;;19.35;10.30;;;29.30;75.30;;;;;;5027139;28;20058;-48
2022/02/15 00:04:16;;;;;;;17.25;9.35;;;29.30;75.30;;;;;;5028860;28;20059;-46
2022/02/15 00:06:43;;;;;;;20.25;10.05;;;29.30;75.50;;;;;;5033494;28;20052;-49
2022/02/15 00:09:10;;;;;;;18.00;9.30;;;29.30;75.70;;;;;;5034842;28;20091;-45
2022/02/15 00:11:37;;;;;;;25.85;9.95;;;29.30;76.00;;;;;;5034933;28;20325;-49
2022/02/15 00:14:04;;;;;;;17.92;9.75;;;29.30;76.10;;;;;;5025100;28;20057;-44
2022/02/15 00:16:31;;;;;;;19.80;9.27;;;29.30;75.90;;;;;;5025629;28;20316;-45
2022/02/15 00:18:58;;;;;;;18.33;9.60;;;29.30;75.90;;;;;;5023307;28;20084;-49
2022/02/15 00:21:25;;;;;;;16.23;9.05;;;29.20;75.90;;;;;;5037726;28;20028;-44
2022/02/15 00:23:52;;;;;;;16.95;8.93;;;29.20;76.00;;;;;;5031087;28;20054;-44
2022/02/15 00:26:19;;;;;;;23.25;9.00;;;29.20;75.80;;;;;;5028532;28;20036;-51
2022/02/15 00:28:46;;;;;;;21.95;9.70;;;29.20;75.60;;;;;;5037560;28;20126;-48
2022/02/15 00:31:13;;;;;;;23.52;9.50;;;29.20;75.60;;;;;;5031177;28;20102;-49
2022/02/15 00:33:40;;;;;;;16.85;8.60;;;29.20;75.60;;;;;;5025914;28;20031;-53
2022/02/15 00:36:09;;;;;;;13.85;8.05;;;29.20;75.70;;;;;;4982815;28;20027;-48
2022/02/15 00:38:36;;;;;;;22.55;9.00;;;29.10;75.50;;;;;;4980394;28;20031;-49
2022/02/15 00:41:07;;;;;;;19.27;9.07;;;29.10;75.30;;;;;;4971829;28;20106;-52
2022/02/15 00:43:45;;;;;;;18.92;8.18;;;29.10;75.50;;;;;;4963026;28;20031;-51
2022/02/15 00:46:12;;;;;;;18.58;9.00;;;29.10;74.90;;;;;;4970285;28;20039;-49
2022/02/15 00:48:39;;;;;;;21.88;9.15;;;29.10;75.00;;;;;;4967004;28;20051;-45
2022/02/15 00:51:06;;;;;;;19.20;9.07;;;29.10;74.80;;;;;;4970257;28;20026;-48
2022/02/15 00:53:32;;;;;;;19.10;9.10;;;29.00;74.60;;;;;;4975331;28;20241;-48
2022/02/15 00:55:59;;;;;;;15.38;8.70;;;29.00;74.40;;;;;;4971687;28;20027;-50
2022/02/15 00:58:25;;;;;;;18.15;8.82;;;29.00;74.10;;;;;;4962685;28;20039;-45
2022/02/15 01:00:52;;;;;;;22.65;8.70;;;29.00;74.10;;;;;;4962171;28;20019;-46
2022/02/15 01:03:19;;;;;;;16.48;8.02;;;29.00;73.80;;;;;;4977632;28;20027;-47
2022/02/15 01:05:45;;;;;;;10.95;8.18;;;29.00;73.80;;;;;;4976881;28;20043;-47
2022/02/15 01:08:14;;;;;;;14.73;8.85;;;29.00;73.60;;;;;;4981831;28;20029;-46
2022/02/15 01:10:42;;;;;;;13.52;8.80;;;29.00;73.50;;;;;;4979369;28;20043;-45
2022/02/15 01:13:08;;;;;;;14.32;8.48;;;28.90;73.50;;;;;;4966090;28;20015;-45
2022/02/15 01:15:35;;;;;;;16.40;9.02;;;28.90;73.50;;;;;;4979955;28;20027;-48
2022/02/15 01:18:02;;;;;;;142.35;114.30;;;28.90;73.30;;;;;;4970866;28;20039;-46
2022/02/15 01:20:30;;;;;;;95.60;74.55;;;28.90;73.20;;;;;;4968203;28;20033;-49
2022/02/15 01:22:57;;;;;;;105.95;78.20;;;28.90;73.50;;;;;;5024935;28;20346;-45
2022/02/15 01:25:25;;;;;;;88.57;66.40;;;28.90;73.50;;;;;;5017247;28;20455;-49
2022/02/15 01:27:52;;;;;;;64.38;44.38;;;28.90;73.40;;;;;;5025320;28;20085;-53
2022/02/15 01:30:19;;;;;;;40.92;29.05;;;28.90;73.60;;;;;;4974446;28;20223;-45
2022/02/15 01:32:47;;;;;;;27.08;18.48;;;28.90;73.40;;;;;;5036936;28;20218;-45
2022/02/15 01:35:15;;;;;;;29.75;17.38;;;28.80;73.00;;;;;;5025818;28;20027;-45
2022/02/15 01:37:42;;;;;;;23.80;13.70;;;28.80;73.20;;;;;;5029153;28;20040;-45
2022/02/15 01:40:10;;;;;;;23.73;11.20;;;28.80;73.40;;;;;;5036109;28;20367;-44
2022/02/15 01:42:37;;;;;;;14.77;11.48;;;28.80;73.60;;;;;;5029795;28;20031;-43
2022/02/15 01:45:09;;;;;;;16.20;11.13;;;28.80;73.40;;;;;;5027973;28;20016;-44
2022/02/15 01:47:37;;;;;;;20.08;13.00;;;28.80;73.20;;;;;;5028195;28;20042;-45
2022/02/15 01:50:04;;;;;;;23.20;13.27;;;28.80;73.20;;;;;;5028179;28;20040;-49
2022/02/15 01:52:31;;;;;;;22.65;12.52;;;28.80;73.10;;;;;;5036573;28;20028;-50
2022/02/15 01:55:00;;;;;;;21.92;12.73;;;28.70;73.10;;;;;;5030172;28;20022;-48
2022/02/15 01:57:29;;;;;;;20.83;12.63;;;28.70;73.00;;;;;;5026169;28;20031;-44
2022/02/15 01:59:57;;;;;;;21.63;12.40;;;28.70;73.30;;;;;;5032475;28;20112;-44
2022/02/15 02:02:26;;;;;;;21.58;11.77;;;28.70;73.30;;;;;;5034587;28;20105;-49
2022/02/15 02:07:38;;;;;;;14.77;9.40;;;28.70;73.00;;;;;;5080624;28;20351;-48
2022/02/15 02:10:06;;;;;;;17.52;10.43;;;28.70;73.00;;;;;;4981202;28;20031;-46
2022/02/15 02:12:33;;;;;;;26.65;13.23;;;28.70;73.20;;;;;;4981297;28;20027;-48
2022/02/15 02:15:14;;;;;;;26.65;12.02;;;28.60;73.30;;;;;;4983333;28;20034;-43
2022/02/15 02:17:41;;;;;;;23.07;13.37;;;28.60;73.20;;;;;;4978675;28;20050;-53
2022/02/15 02:20:08;;;;;;;28.35;14.57;;;28.60;72.80;;;;;;4968613;28;20129;-53
2022/02/15 02:22:35;;;;;;;27.60;16.38;;;28.60;73.10;;;;;;4965027;28;20066;-42
2022/02/15 02:25:03;;;;;;;29.15;16.15;;;28.60;72.80;;;;;;4963815;29;20444;-52
2022/02/15 02:27:36;;;;;;;24.48;14.73;;;28.60;72.80;;;;;;4964852;28;20043;-50
2022/02/15 02:30:03;;;;;;;29.98;16.50;;;28.60;72.70;;;;;;4964882;28;20011;-46
2022/02/15 02:32:31;;;;;;;27.88;17.13;;;28.60;72.60;;;;;;4964813;28;20246;-46
2022/02/15 02:35:02;;;;;;;29.20;16.35;;;28.60;72.40;;;;;;4967348;28;20030;-50
2022/02/15 02:37:29;;;;;;;30.17;16.52;;;28.60;72.40;;;;;;4973329;28;20326;-46
2022/02/15 02:39:56;;;;;;;26.38;16.13;;;28.60;72.40;;;;;;4964666;28;20027;-47
2022/02/15 02:42:27;;;;;;;29.45;18.42;;;28.60;72.40;;;;;;4965206;29;20023;-48
2022/02/15 02:45:00;;;;;;;28.20;17.30;;;28.60;72.30;;;;;;4964791;28;20327;-47
2022/02/15 02:47:26;;;;;;;;;;;28.60;72.20;;;;;;4965421;28;20066;-45
2022/02/15 02:49:53;;;;;;;21.05;12.60;;;28.60;72.10;;;;;;4965085;28;20079;-50
2022/02/15 02:52:21;;;;;;;29.13;13.68;;;28.60;72.20;;;;;;4964851;28;20052;-48
2022/02/15 02:54:48;;;;;;;25.70;14.02;;;28.60;72.20;;;;;;4979912;28;20030;-46
2022/02/15 02:57:14;;;;;;;23.73;14.35;;;28.60;72.10;;;;;;4984113;28;20026;-45
2022/02/15 02:59:42;;;;;;;18.55;12.68;;;28.60;71.90;;;;;;4983828;28;20326;-46
2022/02/15 03:02:10;;;;;;;18.38;12.90;;;28.60;71.80;;;;;;4983724;28;20125;-51
2022/02/15 03:04:37;;;;;;;23.00;12.80;;;28.60;71.70;;;;;;4983698;28;20034;-49
2022/02/15 03:07:04;;;;;;;15.85;11.75;;;28.60;71.80;;;;;;4983974;28;20019;-46
2022/02/15 03:09:31;;;;;;;16.55;11.70;;;28.60;71.80;;;;;;4982866;28;20069;-53
2022/02/15 03:11:58;;;;;;;20.00;13.07;;;28.60;72.10;;;;;;4984083;28;20076;-50
2022/02/15 03:14:24;;;;;;;20.15;15.70;;;28.60;72.10;;;;;;4983599;28;20072;-46
2022/02/15 03:16:51;;;;;;;26.60;21.02;;;28.60;72.50;;;;;;4983775;28;20035;-51
2022/02/15 03:19:18;;;;;;;36.15;28.60;;;28.60;72.70;;;;;;4983500;28;20028;-49
2022/02/15 03:21:45;;;;;;;24.98;14.55;;;28.60;73.00;;;;;;4983338;28;20030;-49
2022/02/15 03:24:11;;;;;;;23.38;12.75;;;28.60;73.70;;;;;;4983296;28;20019;-46
2022/02/15 03:26:38;;;;;;;23.13;13.50;;;28.50;74.10;;;;;;4983872;28;20035;-49
2022/02/15 03:29:05;;;;;;;24.85;16.25;;;28.40;73.70;;;;;;4983314;28;20034;-48
2022/02/15 03:31:32;;;;;;;21.95;17.92;;;28.40;74.20;;;;;;4983634;28;20054;-50
2022/02/15 03:33:58;;;;;;;23.83;17.55;;;28.40;74.10;;;;;;4983248;28;20039;-45
2022/02/15 03:36:25;;;;;;;24.30;15.40;;;28.30;74.40;;;;;;4983656;28;20298;-47
2022/02/15 03:38:51;;;;;;;20.45;13.10;;;28.30;74.70;;;;;;4983141;28;20066;-42
2022/02/15 03:44:04;;;;;;;18.67;13.00;;;28.20;74.30;;;;;;4983062;28;20030;-42
2022/02/15 03:46:30;;;;;;;18.38;11.75;;;28.30;74.60;;;;;;4983452;28;20223;-44
2022/02/15 03:48:57;;;;;;;18.83;11.43;;;28.30;74.20;;;;;;4982966;28;20038;-49
2022/02/15 03:51:23;;;;;;;15.48;11.02;;;28.30;74.00;;;;;;4983279;28;20022;-48
2022/02/15 03:53:50;;;;;;;17.20;12.00;;;28.30;73.70;;;;;;4983286;28;20065;-48
2022/02/15 03:56:17;;;;;;;12.40;9.70;;;28.30;73.60;;;;;;4983220;28;20030;-46
2022/02/15 03:58:46;;;;;;;15.10;9.65;;;28.30;73.10;;;;;;4983091;28;20302;-44
2022/02/15 04:01:13;;;;;;;13.93;9.45;;;28.30;72.80;;;;;;4982724;28;20070;-44
2022/02/15 04:03:40;;;;;;;11.45;8.85;;;28.30;72.50;;;;;;4982876;28;20030;-44
2022/02/15 04:06:06;;;;;;;13.65;9.10;;;28.30;71.70;;;;;;4984277;28;20368;-46
2022/02/15 04:08:33;;;;;;;13.88;8.68;;;28.30;72.10;;;;;;5006434;28;20092;-51
2022/02/15 04:10:59;;;;;;;16.42;9.70;;;28.30;72.10;;;;;;5002410;28;20058;-46
2022/02/15 04:13:26;;;;;;;24.52;11.10;;;28.30;71.90;;;;;;4982690;28;20086;-48
2022/02/15 04:15:52;;;;;;;18.50;10.20;;;28.30;71.90;;;;;;4982920;28;20337;-45
2022/02/15 04:18:19;;;;;;;14.82;9.48;;;28.40;71.90;;;;;;4982805;28;20034;-45
2022/02/15 04:20:45;;;;;;;16.02;9.80;;;28.40;71.80;;;;;;4982507;28;20031;-48
2022/02/15 04:23:12;;;;;;;10.98;9.30;;;28.40;71.70;;;;;;4982614;28;20049;-44
2022/02/15 04:25:39;;;;;;;17.92;10.00;;;28.40;71.60;;;;;;4982616;28;20038;-45
2022/02/15 04:28:05;;;;;;;14.95;9.75;;;28.40;71.70;;;;;;4982493;28;20026;-49
2022/02/15 04:30:32;;;;;;;13.55;9.40;;;28.40;71.60;;;;;;4982548;28;20030;-46
2022/02/15 04:32:58;;;;;;;13.10;9.43;;;28.40;71.60;;;;;;4980795;28;20311;-48
2022/02/15 04:35:25;;;;;;;11.23;8.50;;;28.40;71.50;;;;;;5041022;28;20035;-46
2022/02/15 04:37:52;;;;;;;10.63;8.90;;;28.40;71.40;;;;;;5010571;28;20028;-45
2022/02/15 04:40:18;;;;;;;14.02;8.52;;;28.40;71.30;;;;;;5013575;28;20015;-46
2022/02/15 04:42:45;;;;;;;12.30;8.52;;;28.40;71.30;;;;;;4996175;28;20038;-46
2022/02/15 04:45:12;;;;;;;24.25;21.45;;;28.40;71.10;;;;;;4982154;28;20031;-52
2022/02/15 04:47:41;;;;;;;14.25;10.60;;;28.40;71.20;;;;;;4990512;28;20033;-45
2022/02/15 04:50:08;;;;;;;11.25;10.10;;;28.40;71.20;;;;;;4981993;28;20081;-50
2022/02/15 04:52:35;;;;;;;13.68;9.95;;;28.40;71.10;;;;;;4982103;28;20042;-45
2022/02/15 04:55:01;;;;;;;12.32;9.57;;;28.40;71.20;;;;;;4982241;28;20378;-47
2022/02/15 04:57:28;;;;;;;11.40;8.98;;;28.30;71.00;;;;;;4982234;28;20073;-45
2022/02/15 04:59:54;;;;;;;10.88;8.85;;;28.30;70.80;;;;;;4981749;28;20026;-44
2022/02/15 05:02:21;;;;;;;12.80;8.95;;;28.40;71.00;;;;;;4982067;28;20054;-43
2022/02/15 05:04:51;;;;;;;14.00;9.10;;;28.30;70.90;;;;;;4982144;28;20026;-44
2022/02/15 05:07:22;;;;;;;11.68;8.80;;;28.30;71.00;;;;;;4981773;28;20031;-43
2022/02/15 05:09:49;;;;;;;11.43;8.37;;;28.30;70.90;;;;;;4982066;28;20030;-45
2022/02/15 05:12:19;;;;;;;9.60;7.95;;;28.30;70.90;;;;;;4982447;28;20066;-46
2022/02/15 05:14:46;;;;;;;12.45;8.32;;;28.30;70.90;;;;;;4981951;28;20031;-48
2022/02/15 05:17:13;;;;;;;12.07;8.43;;;28.40;71.10;;;;;;4982352;28;20019;-48
2022/02/15 05:19:39;;;;;;;12.00;8.25;;;28.30;71.10;;;;;;4981862;28;20027;-46
2022/02/15 05:22:06;;;;;;;11.85;8.38;;;28.30;71.10;;;;;;4982272;28;20031;-52
2022/02/15 05:24:33;;;;;;;11.48;8.65;;;28.30;71.20;;;;;;4981844;28;20029;-46
2022/02/15 05:26:59;;;;;;;10.52;8.20;;;28.30;71.40;;;;;;4982285;28;20069;-49
2022/02/15 05:29:27;;;;;;;10.27;8.73;;;28.30;71.30;;;;;;4981598;28;20057;-46
2022/02/15 05:31:53;;;;;;;16.02;8.40;;;28.30;71.40;;;;;;4982123;28;20211;-47
2022/02/15 05:34:20;;;;;;;12.40;8.63;;;28.30;71.20;;;;;;4981818;28;20019;-46
2022/02/15 05:36:46;;;;;;;10.85;8.23;;;28.30;71.30;;;;;;4981911;28;20033;-46
2022/02/15 05:39:13;;;;;;;12.13;8.43;;;28.30;71.20;;;;;;4981744;28;20057;-48
2022/02/15 05:41:39;;;;;;;11.85;8.05;;;28.30;71.20;;;;;;4982009;28;20039;-51
2022/02/15 05:44:06;;;;;;;9.95;8.55;;;28.30;71.30;;;;;;4981505;28;20030;-45
2022/02/15 05:46:33;;;;;;;12.00;8.98;;;28.20;71.20;;;;;;4982579;28;20032;-46
2022/02/15 05:48:59;;;;;;;10.68;7.97;;;28.20;71.20;;;;;;4984960;28;20222;-45
2022/02/15 05:51:26;;;;;;;9.38;8.48;;;28.30;71.40;;;;;;4984905;28;20034;-50
2022/02/15 05:53:52;;;;;;;11.65;8.35;;;28.20;71.30;;;;;;4985064;28;20066;-47
2022/02/15 05:56:19;;;;;;;11.27;8.48;;;28.20;71.40;;;;;;4985067;28;20098;-46
2022/02/15 05:58:46;;;;;;;9.88;8.02;;;28.20;71.30;;;;;;4984696;28;20068;-47
2022/02/15 06:01:12;;;;;;;12.02;8.27;;;28.20;71.50;;;;;;4984701;28;20054;-47
2022/02/15 06:06:24;;;;;;;10.43;8.30;;;28.20;71.30;;;;;;4985141;28;20252;-46
2022/02/15 06:08:51;;;;;;;13.95;8.73;;;28.20;71.20;;;;;;4984975;28;20083;-45
2022/02/15 06:11:18;;;;;;;14.02;8.23;;;28.20;71.20;;;;;;4984703;28;20073;-53
2022/02/15 06:13:45;;;;;;;11.13;8.48;;;28.10;71.20;;;;;;4984864;28;20039;-50
2022/02/15 06:16:11;;;;;;;10.20;7.82;;;28.10;71.20;;;;;;4984720;28;20023;-47
2022/02/15 06:18:38;;;;;;;13.80;7.88;;;28.10;71.30;;;;;;4984706;28;20043;-53
2022/02/15 06:21:04;;;;;;;9.75;7.95;;;28.10;71.20;;;;;;4984742;28;20043;-46
2022/02/15 06:23:31;;;;;;;15.73;8.68;;;28.10;71.20;;;;;;4984447;28;20261;-44
2022/02/15 06:25:58;;;;;;;12.65;8.13;;;28.10;71.40;;;;;;4984570;28;20038;-44
2022/02/15 06:28:24;;;;;;;10.70;8.27;;;28.10;71.30;;;;;;4983852;28;20270;-52
2022/02/15 06:30:51;;;;;;;11.93;8.18;;;28.10;71.30;;;;;;4984623;28;20088;-48
2022/02/15 06:33:17;;;;;;;13.27;8.18;;;28.10;71.40;;;;;;4984551;28;20050;-48
2022/02/15 06:35:44;;;;;;;11.63;7.80;;;28.00;71.40;;;;;;4983992;28;20033;-45
2022/02/15 06:38:10;;;;;;;10.10;7.65;;;28.00;71.40;;;;;;4984292;28;20026;-45
2022/02/15 06:40:37;;;;;;;16.55;8.40;;;28.00;71.50;;;;;;4984384;28;20363;-46
2022/02/15 06:43:05;;;;;;;12.00;8.43;;;28.00;71.50;;;;;;4984041;28;20199;-53
2022/02/15 06:45:32;;;;;;;10.18;8.40;;;28.00;71.50;;;;;;4984093;28;20061;-46
2022/02/15 06:47:59;;;;;;;11.20;8.65;;;28.00;71.70;;;;;;4984008;28;20035;-50
2022/02/15 06:50:26;;;;;;;12.75;8.52;;;28.00;71.90;;;;;;4983911;28;20031;-46
2022/02/15 06:52:52;;;;;;;11.55;9.02;;;28.00;71.80;;;;;;4984026;28;20117;-44
2022/02/15 06:55:19;;;;;;;11.48;8.45;;;28.00;71.80;;;;;;4983890;28;20223;-45
2022/02/15 06:57:46;;;;;;;12.57;8.93;;;28.00;72.40;;;;;;4983554;28;20030;-46
2022/02/15 07:00:13;;;;;;;14.20;8.52;;;27.90;71.90;;;;;;4983711;28;20056;-45
2022/02/15 07:02:39;;;;;;;11.98;9.02;;;27.90;72.00;;;;;;4983753;28;20104;-51
2022/02/15 07:05:06;;;;;;;11.93;9.15;;;28.00;72.30;;;;;;4983680;28;20026;-48
2022/02/15 07:07:35;;;;;;;12.32;8.77;;;28.00;72.40;;;;;;4983909;28;20027;-44
2022/02/15 07:10:03;;;;;;;12.38;8.75;;;28.00;72.50;;;;;;4983737;28;20023;-47
2022/02/15 07:12:29;;;;;;;13.38;9.27;;;28.00;72.50;;;;;;4983611;28;20326;-48
2022/02/15 07:14:56;;;;;;;10.75;8.65;;;27.90;72.70;;;;;;4983972;28;20030;-43
2022/02/15 07:17:24;;;;;;;10.73;8.88;;;27.90;72.60;;;;;;4984307;28;20191;-43
2022/02/15 07:19:51;;;;;;;12.18;9.18;;;28.00;72.80;;;;;;4983659;28;20027;-46
2022/02/15 07:22:17;;;;;;;11.60;8.70;;;27.90;72.70;;;;;;4984326;28;20140;-46
2022/02/15 07:24:44;;;;;;;11.88;9.20;;;27.90;72.80;;;;;;4983660;28;20111;-46
2022/02/15 07:27:10;;;;;;;9.63;8.70;;;27.90;72.90;;;;;;4983796;28;20073;-46
2022/02/15 07:29:37;;;;;;;11.70;8.88;;;27.90;73.00;;;;;;4983465;28;20023;-45
2022/02/15 07:32:04;;;;;;;12.10;9.75;;;27.90;73.10;;;;;;4983816;28;20355;-44
2022/02/15 07:34:30;;;;;;;11.57;8.95;;;27.90;73.40;;;;;;4983334;28;20072;-47
2022/02/15 07:36:57;;;;;;;10.93;8.60;;;27.90;73.40;;;;;;4983672;28;20038;-49
2022/02/15 07:39:24;;;;;;;12.30;9.18;;;27.90;73.40;;;;;;4983550;28;20026;-45
2022/02/15 07:41:50;;;;;;;11.77;8.88;;;27.90;73.40;;;;;;4983530;28;20350;-48
2022/02/15 07:44:18;;;;;;;12.02;8.68;;;27.80;73.10;;;;;;4983461;28;20042;-52
2022/02/15 07:46:46;;;;;;;11.05;8.40;;;27.80;73.10;;;;;;4983535;28;20310;-50
2022/02/15 07:49:14;;;;;;;12.80;9.05;;;27.80;73.20;;;;;;4982894;28;20230;-47
2022/02/15 07:51:41;;;;;;;10.82;8.73;;;27.80;73.20;;;;;;4983724;28;20066;-48
2022/02/15 07:54:08;;;;;;;12.45;9.20;;;27.80;73.10;;;;;;4983246;28;20349;-54
2022/02/15 07:56:35;;;;;;;13.77;8.80;;;27.80;73.10;;;;;;4983209;28;20030;-48
2022/02/15 07:59:02;;;;;;;10.38;8.85;;;27.80;73.20;;;;;;4983127;28;20089;-44
2022/02/15 08:01:28;;;;;;;14.32;9.05;;;27.80;73.10;;;;;;4982939;28;20216;-45
2022/02/15 08:03:56;;;;;;;10.00;8.05;;;27.80;73.30;;;;;;4982949;28;20355;-47
2022/02/15 08:06:23;;;;;;;9.90;8.27;;;27.80;73.30;;;;;;4983191;28;20034;-47
2022/02/15 08:08:49;;;;;;;12.27;8.45;;;27.70;73.30;;;;;;4982175;28;20042;-46
2022/02/15 08:11:16;;;;;;;11.07;8.20;;;27.70;73.40;;;;;;4982751;28;20310;-47
2022/02/15 08:13:44;;;;;;;14.45;8.40;;;27.70;73.40;;;;;;4983074;28;20023;-46
2022/02/15 08:16:10;;;;;;;13.80;8.82;;;27.70;73.60;;;;;;4983188;28;20034;-47
2022/02/15 08:18:41;;;;;;;11.07;8.57;;;27.70;73.80;;;;;;4982837;28;20101;-47
2022/02/15 08:21:10;;;;;;;14.15;9.25;;;27.70;74.00;;;;;;4982878;28;20027;-44
2022/02/15 08:23:37;;;;;;;10.32;8.32;;;27.70;74.40;;;;;;4982602;28;20039;-45
2022/02/15 08:26:05;;;;;;;10.70;8.73;;;27.70;74.60;;;;;;4982640;28;20043;-48
2022/02/15 08:28:33;;;;;;;10.13;8.35;;;27.60;74.80;;;;;;4982536;28;20114;-51
2022/02/15 08:31:00;;;;;;;10.48;8.43;;;27.60;74.70;;;;;;4982835;28;20360;-45
2022/02/15 08:33:28;;;;;;;12.30;8.85;;;27.60;74.60;;;;;;4982271;28;20027;-45
2022/02/15 08:35:54;;;;;;;11.50;9.10;;;27.60;74.60;;;;;;4982569;28;20046;-50
2022/02/15 08:38:21;;;;;;;11.35;9.18;;;27.60;74.60;;;;;;4982564;28;20081;-43
2022/02/15 08:40:47;;;;;;;10.90;8.85;;;27.60;75.00;;;;;;4982524;28;20042;-48
2022/02/15 08:43:14;;;;;;;12.93;9.18;;;27.60;74.50;;;;;;4982583;28;20322;-46
2022/02/15 08:45:40;;;;;;;13.80;8.98;;;27.50;74.30;;;;;;4982415;28;20031;-45
2022/02/15 08:48:08;;;;;;;14.23;8.98;;;27.50;74.10;;;;;;4982106;28;20042;-51
2022/02/15 08:50:35;;;;;;;12.18;9.05;;;27.50;74.10;;;;;;4982540;28;20050;-46
2022/02/15 08:53:05;;;;;;;14.27;8.52;;;27.50;74.00;;;;;;4982435;28;20250;-49
2022/02/15 08:55:34;;;;;;;14.90;8.65;;;27.50;73.80;;;;;;4982170;28;20303;-47
2022/02/15 08:58:01;;;;;;;11.35;8.05;;;27.50;73.60;;;;;;4982200;28;20030;-44
2022/02/15 09:00:27;;;;;;;10.60;8.32;;;27.40;73.60;;;;;;4982061;28;20318;-51
2022/02/15 09:02:54;;;;;;;12.65;8.10;;;27.40;73.90;;;;;;4981936;28;20050;-44
2022/02/15 09:05:21;;;;;;;11.02;8.93;;;27.40;73.60;;;;;;4981974;28;20027;-47
2022/02/15 09:07:48;;;;;;;13.40;8.77;;;27.40;73.60;;;;;;4981992;28;20231;-50
2022/02/15 09:10:15;;;;;;;11.75;8.45;;;27.40;73.60;;;;;;4981894;28;20025;-45
2022/02/15 09:12:42;;;;;;;11.40;8.30;;;27.40;73.20;;;;;;4982145;28;20057;-48
2022/02/15 09:15:15;;;;;;;10.90;7.80;;;27.40;73.00;;;;;;4981912;28;20034;-49
2022/02/15 09:17:42;;;;;;;13.40;8.82;;;27.40;72.90;;;;;;4981846;28;20027;-45
2022/02/15 09:20:10;;;;;;;11.90;8.40;;;27.30;72.70;;;;;;4982014;28;20062;-44
2022/02/15 09:22:40;;;;;;;10.70;7.97;;;27.30;72.70;;;;;;4985427;28;20042;-50
2022/02/15 09:25:10;;;;;;;9.38;8.38;;;27.30;72.50;;;;;;4985248;28;20027;-48
2022/02/15 09:27:36;;;;;;;12.10;8.32;;;27.30;72.40;;;;;;4985117;28;20098;-46
2022/02/15 09:30:05;;;;;;;9.90;8.77;;;27.30;72.20;;;;;;4985227;28;20420;-48
2022/02/15 09:32:31;;;;;;;9.82;7.78;;;27.40;72.30;;;;;;4985034;28;20035;-45
2022/02/15 09:34:58;;;;;;;10.60;7.80;;;27.30;72.10;;;;;;4985291;28;20022;-46
2022/02/15 09:37:25;;;;;;;10.30;7.90;;;27.30;72.20;;;;;;4985639;28;20026;-46
2022/02/15 09:39:52;;;;;;;15.30;8.73;;;27.30;72.30;;;;;;4984956;28;20031;-45
2022/02/15 09:42:18;;;;;;;17.10;10.43;;;27.30;72.20;;;;;;4985514;28;20064;-48
2022/02/15 09:44:49;;;;;;;18.63;11.93;;;27.30;72.40;;;;;;4985618;28;20311;-48
2022/02/15 09:47:24;;;;;;;11.70;10.43;;;27.30;72.90;;;;;;4985315;28;20098;-48
2022/02/15 09:49:51;;;;;;;17.15;9.82;;;27.30;72.10;;;;;;4984993;28;20037;-43
2022/02/15 09:52:23;;;;;;;12.20;9.13;;;27.30;72.00;;;;;;4984873;28;20054;-48
2022/02/15 09:54:52;;;;;;;14.68;9.05;;;27.30;72.20;;;;;;4985085;28;20064;-56
2022/02/15 09:57:23;;;;;;;12.88;8.85;;;27.30;72.40;;;;;;4985300;28;20027;-48
2022/02/15 09:59:50;;;;;;;15.98;9.18;;;27.30;72.20;;;;;;4984759;28;20022;-47
2022/02/15 10:02:27;;;;;;;15.93;9.00;;;27.30;72.00;;;;;;4984732;28;20065;-46
2022/02/15 10:04:58;;;;;;;14.98;9.13;;;27.30;72.00;;;;;;4984727;28;20068;-45
2022/02/15 10:07:25;;;;;;;11.75;8.90;;;27.30;72.00;;;;;;4985111;28;20069;-44
2022/02/15 10:09:54;;;;;;;13.25;8.85;;;27.30;72.00;;;;;;4984688;28;20080;-44
2022/02/15 10:12:22;;;;;;;12.70;8.98;;;27.30;71.80;;;;;;4985035;28;20211;-48
2022/02/15 10:14:52;;;;;;;10.75;8.43;;;27.30;71.70;;;;;;4984594;28;20039;-45
2022/02/15 10:17:21;;;;;;;12.35;8.32;;;27.30;71.40;;;;;;4985025;28;20022;-45
2022/02/15 10:19:51;;;;;;;11.18;8.68;;;27.30;71.10;;;;;;4984366;28;20027;-44
2022/02/15 10:22:19;;;;;;;13.50;8.70;;;27.20;70.80;;;;;;4985019;28;20088;-46
2022/02/15 10:25:00;;;;;;;12.15;8.25;;;27.20;70.60;;;;;;4984498;28;20054;-46
2022/02/15 10:27:30;;;;;;;12.48;8.43;;;27.20;70.50;;;;;;4984874;28;20042;-52
2022/02/15 10:29:58;;;;;;;11.13;8.38;;;27.20;70.80;;;;;;4984364;28;20073;-46
2022/02/15 10:32:25;;;;;;;10.13;8.05;;;27.20;70.90;;;;;;4983926;28;20038;-52
2022/02/15 10:34:56;;;;;;;13.85;8.65;;;27.20;70.60;;;;;;4984359;28;20054;-49
2022/02/15 10:37:32;;;;;;;9.18;7.60;;;27.30;70.70;;;;;;4984852;28;20245;-47
2022/02/15 10:40:06;;;;;;;10.38;8.30;;;27.30;70.70;;;;;;4984232;28;20399;-46
2022/02/15 10:42:36;;;;;;;9.30;7.63;;;27.30;70.50;;;;;;4984407;28;20057;-47
2022/02/15 10:45:10;;;;;;;13.18;8.77;;;27.30;70.20;;;;;;4983974;28;20026;-46
2022/02/15 10:47:39;;;;;;;9.50;7.85;;;27.30;70.20;;;;;;4984012;28;20319;-46
2022/02/15 10:50:08;;;;;;;13.73;8.05;;;27.30;70.30;;;;;;4984025;28;20014;-52
2022/02/15 10:52:36;;;;;;;9.30;8.15;;;27.30;70.20;;;;;;4983978;28;20035;-46
2022/02/15 10:55:03;;;;;;;13.02;9.02;;;27.30;70.20;;;;;;4984091;28;20307;-47
2022/02/15 10:57:30;;;;;;;14.48;8.73;;;27.30;70.00;;;;;;4983748;28;20043;-46
2022/02/15 10:59:58;;;;;;;12.90;8.35;;;27.30;70.10;;;;;;4983717;28;20063;-45
2022/02/15 11:02:27;;;;;;;17.25;8.80;;;27.30;70.00;;;;;;4983299;28;20412;-45
2022/02/15 11:04:56;;;;;;;19.20;8.75;;;27.30;70.20;;;;;;4983284;28;20034;-50
2022/02/15 11:07:25;;;;;;;14.30;9.35;;;27.30;70.20;;;;;;4983948;28;20027;-49
2022/02/15 11:10:26;;;;;;;34.42;11.23;;;27.30;70.20;;;;;;4983708;28;20118;-44
2022/02/15 11:13:01;;;;;;;48.15;11.30;;;27.30;70.40;;;;;;4983619;28;20019;-46
2022/02/15 11:15:30;;;;;;;27.25;10.70;;;27.30;70.60;;;;;;4983643;28;20030;-50
2022/02/15 11:18:05;;;;;;;37.95;10.63;;;27.30;70.70;;;;;;4983600;28;20026;-49
2022/02/15 11:20:59;;;;;;;51.33;11.88;;;27.30;70.90;;;;;;4983532;28;20030;-46
2022/02/15 11:23:29;;;;;;;29.45;11.00;;;27.30;70.90;;;;;;4983422;28;20045;-48
2022/02/15 11:26:19;;;;;;;32.60;11.05;;;27.30;71.00;;;;;;4981884;28;20043;-53
2022/02/15 11:28:48;;;;;;;26.77;10.70;;;27.30;71.00;;;;;;4981836;28;20018;-46
2022/02/15 11:31:39;;;;;;;24.95;10.13;;;27.30;70.90;;;;;;4982335;28;20038;-47
2022/02/15 11:34:07;;;;;;;22.05;10.63;;;27.30;70.70;;;;;;4981960;28;20323;-44
2022/02/15 11:36:51;;;;;;;21.33;10.50;;;27.30;70.70;;;;;;4981731;28;20319;-49
2022/02/15 11:39:21;;;;;;;17.38;10.20;;;27.30;70.80;;;;;;4982122;28;20043;-50
2022/02/15 11:41:49;;;;;;;26.65;10.35;;;27.30;70.80;;;;;;4983262;28;20042;-52
2022/02/15 11:44:26;;;;;;;20.35;11.00;;;27.30;71.10;;;;;;4983112;28;20074;-49
2022/02/15 11:46:53;;;;;;;21.88;10.18;;;27.30;71.00;;;;;;4983753;28;20105;-46
2022/02/15 11:49:23;;;;;;;25.55;12.45;;;27.30;70.90;;;;;;4977986;28;20026;-45
2022/02/15 11:51:50;;;;;;;30.08;12.65;;;27.30;71.30;;;;;;4982392;28;20234;-48
2022/02/15 11:54:21;;;;;;;24.95;11.00;;;27.30;72.30;;;;;;4983305;28;20044;-46
2022/02/15 11:56:50;;;;;;;15.95;10.60;;;27.20;73.10;;;;;;4983462;28;20035;-46
2022/02/15 11:59:17;;;;;;;18.33;10.50;;;27.30;74.10;;;;;;4981123;28;20084;-49
2022/02/15 12:01:58;;;;;;;15.57;10.15;;;27.30;74.40;;;;;;4982323;28;20059;-44
2022/02/15 12:04:26;;;;;;;21.42;10.18;;;27.30;75.00;;;;;;4982382;28;20211;-44
2022/02/15 12:06:53;;;;;;;25.08;10.70;;;27.20;75.40;;;;;;4983283;28;20054;-47
2022/02/15 12:09:28;;;;;;;24.65;10.60;;;27.20;75.60;;;;;;4982691;28;20049;-49
2022/02/15 12:11:55;;;;;;;24.42;12.13;;;27.20;76.50;;;;;;4983261;28;20303;-47
2022/02/15 12:14:25;;;;;;;27.77;11.45;;;27.20;77.20;;;;;;4982114;28;20314;-48
2022/02/15 12:16:53;;;;;;;30.73;11.27;;;27.20;77.90;;;;;;4983138;28;20027;-45
2022/02/15 12:19:28;;;;;;;22.73;10.55;;;27.20;77.70;;;;;;4983187;28;20023;-50
2022/02/15 12:22:18;;;;;;;16.02;10.68;;;27.20;78.00;;;;;;4983038;28;20034;-48
2022/02/15 12:24:49;;;;;;;17.63;11.63;;;27.20;78.10;;;;;;4983542;28;20030;-49
2022/02/15 12:27:16;;;;;;;21.75;11.77;;;27.20;78.10;;;;;;4983487;28;20043;-51
2022/02/15 12:29:43;;;;;;;17.48;11.32;;;27.20;78.40;;;;;;4982495;28;20078;-46
2022/02/15 12:32:09;;;;;;;22.50;11.07;;;27.20;78.50;;;;;;4983628;28;20025;-47
2022/02/15 12:34:36;;;;;;;20.20;11.75;;;27.20;78.70;;;;;;4982669;28;20054;-45
2022/02/15 12:37:03;;;;;;;17.83;11.48;;;27.20;78.60;;;;;;4983370;28;20030;-46
2022/02/15 12:39:37;;;;;;;19.02;11.05;;;27.20;78.80;;;;;;4982775;28;20043;-51
2022/02/15 12:42:11;;;;;;;19.13;10.75;;;27.20;78.90;;;;;;4983437;28;20054;-51
2022/02/15 12:44:39;;;;;;;18.92;11.30;;;27.20;78.90;;;;;;4982532;28;20093;-47
2022/02/15 12:47:06;;;;;;;17.02;10.43;;;27.20;79.40;;;;;;4982768;28;20141;-54